Time;durP1;ratioP1;P1;durP2;ratioP2;P2;SDS_P1;SDS_P2;PMS_P1;PMS_P2;Temp;Humidity;BMP_temperature;BMP_pressure;BME280_temperature;BME280_humidity;BME280_pressure;Samples;Min_cycle;Max_cycle;Signal;HPM_P1;HPM_P2
2021/10/02 00:31:48;;;;;;;1.80;1.54;;;;;;;19.18;67.69;100452.69;;;;-64
2021/10/02 00:34:42;;;;;;;1.53;1.41;;;;;;;19.18;67.69;100456.99;;;;-65
2021/10/02 00:37:45;;;;;;;1.73;1.60;;;;;;;19.17;67.78;100452.99;;;;-50
2021/10/02 00:47:26;;;;;;;2.24;1.51;;;;;;;19.16;67.76;100465.59;;;;-51
2021/10/02 00:50:24;;;;;;;1.87;1.65;;;;;;;19.15;67.78;100465.59;;;;-51
2021/10/02 00:53:25;;;;;;;1.63;1.51;;;;;;;19.16;67.74;100464.04;;;;-56
2021/10/02 00:56:25;;;;;;;1.88;1.59;;;;;;;19.14;67.78;100464.84;;;;-65
2021/10/02 00:59:28;;;;;;;2.15;1.65;;;;;;;19.15;67.75;100445.50;;;;-52
2021/10/02 01:02:25;;;;;;;1.52;1.42;;;;;;;19.14;67.74;100451.59;;;;-52
2021/10/02 01:05:24;;;;;;;2.06;1.63;;;;;;;19.14;67.82;100454.69;;;;-55
2021/10/02 01:08:25;;;;;;;1.60;1.50;;;;;;;19.14;67.79;100451.20;;;;-56
2021/10/02 01:11:25;;;;;;;1.59;1.47;;;;;;;19.13;67.84;100453.87;;;;-56
2021/10/02 01:14:25;;;;;;;1.63;1.53;;;;;;;19.14;67.77;100455.17;;;;-56
2021/10/02 01:17:26;;;;;;;1.67;1.53;;;;;;;19.13;67.80;100457.51;;;;-55
2021/10/02 01:20:25;;;;;;;1.69;1.59;;;;;;;19.13;67.81;100448.52;;;;-56
2021/10/02 01:23:25;;;;;;;1.79;1.59;;;;;;;19.13;67.78;100445.16;;;;-50
2021/10/02 01:26:25;;;;;;;2.21;1.55;;;;;;;19.14;67.77;100443.72;;;;-50
2021/10/02 01:29:24;;;;;;;1.63;1.49;;;;;;;19.15;67.73;100449.23;;;;-56
2021/10/02 01:32:30;;;;;;;1.78;1.61;;;;;;;19.13;67.79;100445.56;;;;-56
2021/10/02 01:35:31;;;;;;;1.67;1.49;;;;;;;19.13;67.80;100439.80;;;;-50
2021/10/02 01:48:25;;;;;;;1.70;1.60;;;;;;;19.13;67.78;100418.19;;;;-51
2021/10/02 01:51:25;;;;;;;1.60;1.50;;;;;;;19.13;67.80;100417.55;;;;-51
2021/10/02 01:54:25;;;;;;;1.59;1.49;;;;;;;19.13;67.80;100425.17;;;;-63
2021/10/02 01:57:27;;;;;;;1.59;1.49;;;;;;;19.13;67.77;100432.16;;;;-51
2021/10/02 02:00:25;;;;;;;1.62;1.52;;;;;;;19.12;67.77;100428.52;;;;-51
2021/10/02 02:03:25;;;;;;;1.69;1.59;;;;;;;19.10;67.89;100422.58;;;;-50
2021/10/02 02:06:25;;;;;;;1.67;1.50;;;;;;;19.10;67.86;100421.11;;;;-50
2021/10/02 02:09:25;;;;;;;2.06;1.68;;;;;;;19.10;67.88;100417.61;;;;-51
2021/10/02 02:12:30;;;;;;;2.13;1.45;;;;;;;19.12;67.83;100413.33;;;;-51
2021/10/02 02:15:25;;;;;;;1.73;1.63;;;;;;;19.11;67.81;100409.81;;;;-51
2021/10/02 02:18:24;;;;;;;1.69;1.51;;;;;;;19.10;67.82;100412.33;;;;-50
2021/10/02 02:21:24;;;;;;;1.55;1.42;;;;;;;19.10;67.87;100412.91;;;;-56
2021/10/02 02:24:25;;;;;;;2.19;1.60;;;;;;;19.10;67.85;100410.95;;;;-55
2021/10/02 02:27:24;;;;;;;1.59;1.49;;;;;;;19.12;67.80;100409.67;;;;-56
2021/10/02 02:30:25;;;;;;;1.50;1.40;;;;;;;19.10;67.93;100409.09;;;;-56
2021/10/02 02:33:25;;;;;;;1.69;1.59;;;;;;;19.11;67.78;100407.45;;;;-51
2021/10/02 02:36:24;;;;;;;1.75;1.59;;;;;;;19.09;67.86;100400.05;;;;-64
2021/10/02 02:39:25;;;;;;;1.72;1.50;;;;;;;19.09;67.88;100396.98;;;;-65
2021/10/02 02:42:24;;;;;;;1.80;1.57;;;;;;;19.07;67.87;100392.18;;;;-64
2021/10/02 02:45:25;;;;;;;1.85;1.70;;;;;;;19.09;67.83;100396.80;;;;-57
2021/10/02 02:48:26;;;;;;;1.60;1.50;;;;;;;19.06;67.98;100399.63;;;;-56
2021/10/02 02:51:24;;;;;;;1.59;1.49;;;;;;;19.06;67.93;100395.89;;;;-65
2021/10/02 02:54:25;;;;;;;1.79;1.60;;;;;;;19.08;67.86;100397.13;;;;-64
2021/10/02 02:57:24;;;;;;;1.50;1.40;;;;;;;19.08;67.91;100400.70;;;;-66
2021/10/02 03:00:25;;;;;;;1.57;1.43;;;;;;;19.07;67.92;100405.26;;;;-64
2021/10/02 03:03:25;;;;;;;1.52;1.42;;;;;;;19.08;67.84;100405.41;;;;-64
2021/10/02 03:06:25;;;;;;;1.93;1.41;;;;;;;19.08;67.88;100400.22;;;;-66
2021/10/02 03:09:25;;;;;;;1.83;1.50;;;;;;;19.07;67.88;100394.62;;;;-65
2021/10/02 03:12:24;;;;;;;1.63;1.53;;;;;;;19.07;67.84;100388.58;;;;-51
2021/10/02 03:15:24;;;;;;;1.53;1.43;;;;;;;19.07;67.90;100392.89;;;;-51
2021/10/02 03:18:25;;;;;;;1.67;1.57;;;;;;;19.06;67.91;100390.62;;;;-64
2021/10/02 03:21:25;;;;;;;1.69;1.58;;;;;;;19.06;67.92;100391.11;;;;-56
2021/10/02 03:24:25;;;;;;;1.59;1.47;;;;;;;19.05;67.92;100389.63;;;;-56
2021/10/02 03:27:24;;;;;;;1.50;1.40;;;;;;;19.05;67.99;100389.48;;;;-56
2021/10/02 03:30:25;;;;;;;2.00;1.57;;;;;;;19.04;67.96;100386.22;;;;-51
2021/10/02 03:33:25;;;;;;;1.60;1.50;;;;;;;19.04;67.98;100386.78;;;;-51
2021/10/02 03:36:24;;;;;;;1.53;1.40;;;;;;;19.05;67.92;100389.33;;;;-50
2021/10/02 03:39:25;;;;;;;2.59;1.56;;;;;;;19.04;67.94;100385.64;;;;-50
2021/10/02 03:42:24;;;;;;;1.62;1.52;;;;;;;19.04;67.92;100384.59;;;;-51
2021/10/02 03:45:24;;;;;;;1.93;1.53;;;;;;;19.05;67.91;100385.34;;;;-64
2021/10/02 03:48:25;;;;;;;1.63;1.53;;;;;;;19.03;67.96;100386.06;;;;-64
2021/10/02 03:51:24;;;;;;;1.49;1.39;;;;;;;19.03;68.02;100388.41;;;;-64
2021/10/02 03:54:25;;;;;;;1.79;1.65;;;;;;;19.04;67.93;100386.14;;;;-64
2021/10/02 03:57:25;;;;;;;1.58;1.48;;;;;;;19.02;67.97;100383.77;;;;-64
2021/10/02 04:00:24;;;;;;;1.65;1.51;;;;;;;19.03;67.95;100378.72;;;;-66
2021/10/02 04:03:25;;;;;;;1.67;1.57;;;;;;;19.03;68.03;100384.73;;;;-51
2021/10/02 04:06:24;;;;;;;1.71;1.61;;;;;;;19.04;67.95;100384.76;;;;-51
2021/10/02 04:09:26;;;;;;;1.57;1.47;;;;;;;19.03;67.89;100391.50;;;;-51
2021/10/02 04:12:25;;;;;;;1.68;1.57;;;;;;;19.03;67.93;100388.58;;;;-51
2021/10/02 04:15:25;;;;;;;1.60;1.50;;;;;;;19.03;67.91;100384.44;;;;-51
2021/10/02 04:18:25;;;;;;;1.75;1.65;;;;;;;19.02;67.92;100382.22;;;;-51
2021/10/02 04:21:24;;;;;;;1.50;1.40;;;;;;;19.02;67.90;100381.00;;;;-50
2021/10/02 04:24:25;;;;;;;1.59;1.49;;;;;;;19.01;67.98;100377.84;;;;-51
2021/10/02 04:27:25;;;;;;;1.51;1.40;;;;;;;19.01;68.07;100381.58;;;;-50
2021/10/02 04:30:24;;;;;;;1.54;1.44;;;;;;;19.03;67.97;100377.70;;;;-50
2021/10/02 04:33:25;;;;;;;1.67;1.57;;;;;;;19.01;67.99;100375.98;;;;-63
2021/10/02 04:36:24;;;;;;;1.78;1.59;;;;;;;19.01;68.00;100374.65;;;;-51
2021/10/02 04:39:25;;;;;;;1.70;1.60;;;;;;;19.01;68.03;100373.63;;;;-51
2021/10/02 04:42:24;;;;;;;1.63;1.53;;;;;;;19.02;67.97;100374.02;;;;-51
2021/10/02 04:45:25;;;;;;;1.60;1.50;;;;;;;19.02;67.95;100374.27;;;;-50
2021/10/02 04:48:25;;;;;;;1.60;1.50;;;;;;;19.00;67.98;100370.92;;;;-50
2021/10/02 04:51:24;;;;;;;1.83;1.59;;;;;;;19.01;67.97;100368.10;;;;-64
2021/10/02 04:54:24;;;;;;;1.50;1.40;;;;;;;19.00;67.99;100363.36;;;;-50
2021/10/02 04:57:24;;;;;;;1.64;1.54;;;;;;;19.02;67.92;100349.66;;;;-50
2021/10/02 05:00:24;;;;;;;1.79;1.69;;;;;;;18.98;68.01;100339.06;;;;-50
2021/10/02 05:03:25;;;;;;;1.67;1.57;;;;;;;18.99;67.99;100333.33;;;;-50
2021/10/02 05:06:24;;;;;;;1.71;1.59;;;;;;;19.00;67.87;100332.50;;;;-50
2021/10/02 05:09:25;;;;;;;1.86;1.59;;;;;;;19.00;67.98;100333.80;;;;-50
2021/10/02 05:12:25;;;;;;;2.14;1.59;;;;;;;19.01;67.92;100342.68;;;;-51
2021/10/02 05:15:24;;;;;;;1.60;1.49;;;;;;;18.99;68.00;100352.98;;;;-51
2021/10/02 05:18:25;;;;;;;1.64;1.54;;;;;;;19.00;67.90;100350.53;;;;-51
2021/10/02 05:21:24;;;;;;;1.72;1.55;;;;;;;18.99;67.95;100343.97;;;;-51
2021/10/02 05:24:25;;;;;;;1.60;1.50;;;;;;;18.97;68.03;100347.28;;;;-51
2021/10/02 05:27:24;;;;;;;1.60;1.50;;;;;;;18.97;68.00;100352.40;;;;-64
2021/10/02 05:30:24;;;;;;;2.01;1.47;;;;;;;19.00;67.89;100364.66;;;;-65
2021/10/02 05:33:25;;;;;;;1.49;1.39;;;;;;;18.98;68.00;100369.52;;;;-52
2021/10/02 05:36:24;;;;;;;1.67;1.57;;;;;;;18.96;68.07;100367.48;;;;-51
2021/10/02 05:39:24;;;;;;;1.61;1.51;;;;;;;18.97;68.02;100370.67;;;;-51
2021/10/02 05:42:24;;;;;;;1.58;1.48;;;;;;;18.96;68.07;100374.45;;;;-51
2021/10/02 05:45:24;;;;;;;1.63;1.53;;;;;;;18.96;67.99;100376.66;;;;-51
2021/10/02 05:48:24;;;;;;;1.72;1.51;;;;;;;18.96;68.00;100375.52;;;;-51
2021/10/02 05:51:25;;;;;;;1.63;1.53;;;;;;;18.97;67.99;100374.65;;;;-52
2021/10/02 05:54:24;;;;;;;1.67;1.57;;;;;;;18.96;68.02;100371.62;;;;-51
2021/10/02 05:57:25;;;;;;;1.62;1.52;;;;;;;18.95;68.07;100376.09;;;;-51
2021/10/02 06:00:24;;;;;;;1.65;1.55;;;;;;;18.96;68.00;100378.28;;;;-51
2021/10/02 06:03:25;;;;;;;1.59;1.49;;;;;;;18.97;67.93;100377.81;;;;-51
2021/10/02 06:06:24;;;;;;;1.67;1.57;;;;;;;18.98;67.96;100372.28;;;;-50
2021/10/02 06:09:24;;;;;;;2.15;1.50;;;;;;;18.98;67.89;100369.44;;;;-50
2021/10/02 06:12:25;;;;;;;1.65;1.55;;;;;;;19.00;67.84;100365.73;;;;-50
2021/10/02 06:15:24;;;;;;;1.57;1.47;;;;;;;18.98;67.82;100363.91;;;;-51
2021/10/02 06:18:25;;;;;;;1.65;1.55;;;;;;;18.99;67.89;100365.98;;;;-64
2021/10/02 06:21:24;;;;;;;1.83;1.51;;;;;;;18.97;67.91;100366.36;;;;-64
2021/10/02 06:24:25;;;;;;;1.52;1.42;;;;;;;18.97;67.95;100370.19;;;;-65
2021/10/02 06:27:24;;;;;;;1.81;1.51;;;;;;;18.96;67.99;100365.13;;;;-65
2021/10/02 06:30:24;;;;;;;1.67;1.57;;;;;;;18.96;67.95;100361.39;;;;-64
2021/10/02 06:33:25;;;;;;;2.15;1.70;;;;;;;18.97;67.92;100354.67;;;;-65
2021/10/02 06:36:26;;;;;;;1.63;1.53;;;;;;;18.96;67.94;100348.06;;;;-64
2021/10/02 06:39:25;;;;;;;1.70;1.60;;;;;;;18.97;67.92;100354.75;;;;-56
2021/10/02 06:42:24;;;;;;;1.58;1.48;;;;;;;18.97;67.93;100361.65;;;;-56
2021/10/02 06:45:24;;;;;;;1.65;1.55;;;;;;;18.97;67.92;100364.73;;;;-56
2021/10/02 06:48:25;;;;;;;1.59;1.49;;;;;;;18.96;67.93;100355.54;;;;-55
2021/10/02 06:51:24;;;;;;;1.70;1.60;;;;;;;18.96;67.89;100368.05;;;;-56
2021/10/02 06:54:24;;;;;;;1.89;1.50;;;;;;;18.98;67.92;100363.34;;;;-55
2021/10/02 06:57:24;;;;;;;1.65;1.55;;;;;;;18.98;67.87;100359.05;;;;-55
2021/10/02 07:00:24;;;;;;;1.75;1.60;;;;;;;18.97;67.93;100364.66;;;;-56
2021/10/02 07:03:25;;;;;;;1.58;1.48;;;;;;;18.96;67.95;100355.13;;;;-55
2021/10/02 07:06:24;;;;;;;1.70;1.60;;;;;;;18.97;67.84;100354.83;;;;-55
2021/10/02 07:09:24;;;;;;;1.69;1.55;;;;;;;18.97;67.94;100356.38;;;;-55
2021/10/02 07:12:24;;;;;;;1.59;1.49;;;;;;;18.98;67.87;100360.67;;;;-55
2021/10/02 07:15:24;;;;;;;1.70;1.60;;;;;;;18.98;67.90;100360.10;;;;-57
2021/10/02 07:18:25;;;;;;;2.24;1.95;;;;;;;18.99;67.27;100362.72;;;;-59
2021/10/02 07:21:24;;;;;;;3.16;2.17;;;;;;;18.95;67.05;100357.83;;;;-54
2021/10/02 07:24:24;;;;;;;12.39;2.74;;;;;;;18.98;66.78;100352.63;;;;-58
2021/10/02 07:27:24;;;;;;;4.47;2.27;;;;;;;18.98;67.10;100345.48;;;;-56
2021/10/02 07:30:24;;;;;;;8.17;2.41;;;;;;;18.99;67.30;100347.05;;;;-54
2021/10/02 07:33:26;;;;;;;5.96;2.23;;;;;;;18.99;67.47;100342.34;;;;-54
2021/10/02 07:36:24;;;;;;;4.65;2.20;;;;;;;19.01;67.57;100346.39;;;;-53
2021/10/02 07:39:24;;;;;;;5.43;2.23;;;;;;;19.01;67.72;100344.79;;;;-53
2021/10/02 07:42:25;;;;;;;4.78;2.09;;;;;;;19.02;67.87;100348.20;;;;-53
2021/10/02 07:45:25;;;;;;;2.56;1.91;;;;;;;19.02;67.94;100352.33;;;;-54
2021/10/02 07:48:25;;;;;;;7.19;2.17;;;;;;;19.05;67.87;100357.78;;;;-55
2021/10/02 07:51:24;;;;;;;3.87;2.09;;;;;;;19.05;67.84;100357.30;;;;-54
2021/10/02 07:54:24;;;;;;;5.23;2.10;;;;;;;19.04;67.88;100359.50;;;;-55
2021/10/02 07:57:24;;;;;;;3.37;1.95;;;;;;;19.03;67.89;100362.10;;;;-55
2021/10/02 08:00:24;;;;;;;6.27;2.08;;;;;;;19.04;67.89;100368.59;;;;-55
2021/10/02 08:03:24;;;;;;;6.92;2.14;;;;;;;19.04;67.92;100366.64;;;;-54
2021/10/02 08:06:25;;;;;;;4.31;1.84;;;;;;;19.04;67.94;100361.86;;;;-55
2021/10/02 08:09:24;;;;;;;3.80;1.88;;;;;;;19.03;67.89;100357.28;;;;-55
2021/10/02 08:12:24;;;;;;;3.02;2.01;;;;;;;19.07;67.96;100348.22;;;;-55
2021/10/02 08:15:24;;;;;;;4.79;1.95;;;;;;;19.06;68.00;100349.11;;;;-54
2021/10/02 08:18:24;;;;;;;3.36;1.96;;;;;;;19.07;68.06;100351.55;;;;-59
2021/10/02 08:21:24;;;;;;;3.30;1.89;;;;;;;19.08;68.25;100350.02;;;;-56
2021/10/02 08:24:24;;;;;;;2.85;2.08;;;;;;;19.10;68.19;100351.66;;;;-58
2021/10/02 08:27:24;;;;;;;2.86;1.91;;;;;;;19.10;68.34;100349.30;;;;-57
2021/10/02 08:30:25;;;;;;;2.53;2.03;;;;;;;19.11;68.41;100343.28;;;;-59
2021/10/02 08:33:24;;;;;;;3.09;1.78;;;;;;;19.13;68.42;100343.14;;;;-58
2021/10/02 08:36:24;;;;;;;4.90;2.07;;;;;;;19.15;68.30;100340.66;;;;-59
2021/10/02 08:39:24;;;;;;;7.71;2.05;;;;;;;19.16;68.37;100336.42;;;;-59
2021/10/02 08:42:24;;;;;;;2.22;1.83;;;;;;;19.17;68.40;100330.56;;;;-61
2021/10/02 08:45:25;;;;;;;4.34;2.09;;;;;;;19.19;68.37;100323.19;;;;-60
2021/10/02 08:48:24;;;;;;;4.15;2.03;;;;;;;19.20;68.28;100321.02;;;;-61
2021/10/02 08:51:24;;;;;;;5.39;2.10;;;;;;;19.23;68.37;100319.31;;;;-57
2021/10/02 08:54:24;;;;;;;4.85;2.20;;;;;;;19.26;68.25;100317.39;;;;-57
2021/10/02 08:57:24;;;;;;;4.53;2.13;;;;;;;19.24;68.33;100318.35;;;;-51
2021/10/02 09:00:24;;;;;;;3.54;2.15;;;;;;;19.24;68.29;100310.64;;;;-57
2021/10/02 09:03:24;;;;;;;7.22;2.28;;;;;;;19.24;68.32;100312.66;;;;-57
2021/10/02 09:06:24;;;;;;;3.13;1.95;;;;;;;19.25;68.36;100317.13;;;;-58
2021/10/02 09:09:24;;;;;;;4.83;2.15;;;;;;;19.24;68.27;100315.52;;;;-57
2021/10/02 09:12:24;;;;;;;7.23;2.17;;;;;;;19.23;68.22;100311.02;;;;-58
2021/10/02 09:15:24;;;;;;;3.52;1.98;;;;;;;19.24;68.16;100309.67;;;;-58
2021/10/02 09:18:24;;;;;;;4.44;2.26;;;;;;;19.25;68.19;100296.33;;;;-58
2021/10/02 09:21:24;;;;;;;5.26;2.21;;;;;;;19.25;68.11;100293.56;;;;-60
2021/10/02 09:24:24;;;;;;;5.22;2.07;;;;;;;19.26;68.15;100287.55;;;;-51
2021/10/02 09:27:24;;;;;;;7.31;2.17;;;;;;;19.27;68.14;100283.50;;;;-54
2021/10/02 09:30:24;;;;;;;5.73;2.20;;;;;;;19.26;68.15;100279.36;;;;-57
2021/10/02 09:33:24;;;;;;;6.79;2.35;;;;;;;19.27;68.24;100273.19;;;;-57
2021/10/02 09:36:25;;;;;;;4.61;2.21;;;;;;;19.29;68.13;100266.12;;;;-62
2021/10/02 09:39:24;;;;;;;4.07;2.22;;;;;;;19.29;68.13;100261.25;;;;-57
2021/10/02 09:42:25;;;;;;;5.12;2.21;;;;;;;19.30;68.11;100252.41;;;;-58
2021/10/02 09:45:24;;;;;;;4.22;2.09;;;;;;;19.32;68.13;100243.78;;;;-58
2021/10/02 09:48:24;;;;;;;9.43;2.43;;;;;;;19.32;68.09;100240.70;;;;-61
2021/10/02 09:51:24;;;;;;;5.62;2.35;;;;;;;19.32;68.02;100236.73;;;;-50
2021/10/02 09:54:24;;;;;;;3.65;2.10;;;;;;;19.34;68.01;100239.51;;;;-51
2021/10/02 09:57:25;;;;;;;4.18;2.13;;;;;;;19.34;67.98;100231.88;;;;-60
2021/10/02 10:00:25;;;;;;;4.36;2.38;;;;;;;19.36;68.02;100224.78;;;;-55
2021/10/02 10:03:39;;;;;;;5.88;2.17;;;;;;;19.36;68.06;100230.72;;;;-51
2021/10/02 10:06:24;;;;;;;4.89;2.30;;;;;;;19.37;67.99;100232.20;;;;-54
2021/10/02 10:09:24;;;;;;;5.73;2.33;;;;;;;19.38;67.97;100221.32;;;;-55
2021/10/02 10:12:24;;;;;;;5.97;2.49;;;;;;;19.39;67.94;100216.36;;;;-56
2021/10/02 10:15:24;;;;;;;7.09;2.20;;;;;;;19.38;67.98;100208.22;;;;-58
2021/10/02 10:18:24;;;;;;;3.84;2.03;;;;;;;19.38;67.97;100205.16;;;;-58
2021/10/02 10:21:24;;;;;;;2.95;2.13;;;;;;;19.40;67.87;100200.09;;;;-54
2021/10/02 10:24:24;;;;;;;4.41;2.21;;;;;;;19.40;67.90;100196.36;;;;-60
2021/10/02 10:27:24;;;;;;;4.27;2.25;;;;;;;19.41;67.79;100198.00;;;;-59
2021/10/02 10:30:24;;;;;;;2.62;2.10;;;;;;;19.41;67.85;100190.68;;;;-51
2021/10/02 10:33:24;;;;;;;4.85;2.20;;;;;;;19.43;67.79;100195.64;;;;-56
2021/10/02 10:36:24;;;;;;;5.35;2.12;;;;;;;19.42;67.78;100192.16;;;;-58
2021/10/02 10:39:24;;;;;;;2.79;2.19;;;;;;;19.43;67.79;100177.69;;;;-55
2021/10/02 10:42:24;;;;;;;4.12;2.03;;;;;;;19.43;67.75;100167.94;;;;-58
2021/10/02 10:45:24;;;;;;;3.21;2.01;;;;;;;19.44;67.69;100172.17;;;;-54
2021/10/02 10:48:24;;;;;;;3.41;2.08;;;;;;;19.44;67.69;100175.16;;;;-54
2021/10/02 10:51:25;;;;;;;6.96;2.27;;;;;;;19.43;67.69;100177.20;;;;-54
2021/10/02 10:54:24;;;;;;;3.13;2.05;;;;;;;19.41;67.75;100162.48;;;;-54
2021/10/02 10:57:24;;;;;;;3.14;2.09;;;;;;;19.41;67.73;100160.61;;;;-52
2021/10/02 11:00:24;;;;;;;3.20;2.22;;;;;;;19.41;67.69;100157.86;;;;-49
2021/10/02 11:03:24;;;;;;;4.71;2.24;;;;;;;19.40;67.77;100150.36;;;;-54
2021/10/02 11:06:24;;;;;;;3.41;1.91;;;;;;;19.39;67.79;100140.14;;;;-63
2021/10/02 11:09:24;;;;;;;2.67;1.94;;;;;;;19.40;67.74;100136.88;;;;-63
2021/10/02 11:12:24;;;;;;;3.12;2.07;;;;;;;19.38;67.74;100133.48;;;;-63
2021/10/02 11:15:24;;;;;;;3.47;2.30;;;;;;;19.39;67.74;100125.84;;;;-51
2021/10/02 11:18:24;;;;;;;4.24;2.31;;;;;;;19.37;67.77;100116.56;;;;-51
2021/10/02 11:21:29;;;;;;;3.40;2.01;;;;;;;19.37;67.77;100114.70;;;;-51
2021/10/02 11:24:24;;;;;;;3.25;2.26;;;;;;;19.38;67.75;100116.31;;;;-51
2021/10/02 11:27:24;;;;;;;3.61;2.15;;;;;;;19.36;67.71;100111.94;;;;-51
2021/10/02 11:30:24;;;;;;;2.69;1.93;;;;;;;19.36;67.73;100102.03;;;;-51
2021/10/02 11:33:24;;;;;;;3.13;2.01;;;;;;;19.37;67.73;100097.89;;;;-49
2021/10/02 11:36:24;;;;;;;4.60;2.03;;;;;;;19.36;67.73;100094.70;;;;-50
2021/10/02 11:39:24;;;;;;;3.61;1.89;;;;;;;19.36;67.73;100089.58;;;;-50
2021/10/02 11:42:24;;;;;;;2.60;2.01;;;;;;;19.35;67.74;100078.29;;;;-53
2021/10/02 11:45:24;;;;;;;3.53;2.00;;;;;;;19.35;67.77;100067.65;;;;-54
2021/10/02 11:48:24;;;;;;;3.72;1.96;;;;;;;19.35;67.72;100056.11;;;;-55
2021/10/02 11:51:24;;;;;;;2.93;1.90;;;;;;;19.35;67.70;100044.98;;;;-54
2021/10/02 11:54:24;;;;;;;3.23;1.94;;;;;;;19.33;67.79;100046.77;;;;-54
2021/10/02 11:57:24;;;;;;;2.97;1.90;;;;;;;19.33;67.77;100040.44;;;;-54
2021/10/02 12:00:24;;;;;;;2.48;1.82;;;;;;;19.34;67.76;100036.84;;;;-54
2021/10/02 12:03:24;;;;;;;2.31;1.90;;;;;;;19.34;67.75;100034.49;;;;-54
2021/10/02 12:06:24;;;;;;;3.24;1.85;;;;;;;19.33;67.79;100024.34;;;;-63
2021/10/02 12:09:29;;;;;;;3.67;2.01;;;;;;;19.33;67.82;100016.80;;;;-63
2021/10/02 12:12:24;;;;;;;2.22;1.87;;;;;;;19.32;67.81;100016.94;;;;-64
2021/10/02 12:15:24;;;;;;;4.66;1.93;;;;;;;19.34;67.76;100009.87;;;;-57
2021/10/02 12:18:24;;;;;;;3.91;2.01;;;;;;;19.34;67.81;100007.03;;;;-58
2021/10/02 12:21:25;;;;;;;3.21;2.18;;;;;;;19.36;67.63;100013.28;;;;-51
2021/10/02 12:24:24;;;;;;;4.53;1.99;;;;;;;19.37;67.55;100004.59;;;;-55
2021/10/02 12:27:24;;;;;;;6.15;2.13;;;;;;;19.38;67.58;100000.80;;;;-57
2021/10/02 12:30:24;;;;;;;6.20;2.50;;;;;;;19.39;67.60;99999.56;;;;-51
2021/10/02 12:33:24;;;;;;;5.83;2.18;;;;;;;19.40;67.62;100004.91;;;;-51
2021/10/02 12:36:24;;;;;;;7.58;2.39;;;;;;;19.43;67.55;100015.91;;;;-57
2021/10/02 12:39:24;;;;;;;4.89;2.32;;;;;;;19.41;67.56;100002.24;;;;-56
2021/10/02 12:42:24;;;;;;;11.67;2.41;;;;;;;19.41;67.61;99996.89;;;;-56
2021/10/02 12:45:24;;;;;;;6.45;2.52;;;;;;;19.39;67.66;99984.53;;;;-56
2021/10/02 12:48:24;;;;;;;5.31;2.26;;;;;;;19.38;67.56;99981.35;;;;-55
2021/10/02 12:51:24;;;;;;;4.42;2.41;;;;;;;19.41;67.31;99975.92;;;;-54
2021/10/02 12:54:24;;;;;;;4.98;2.40;;;;;;;19.41;67.50;99975.43;;;;-58
2021/10/02 12:57:24;;;;;;;6.03;2.45;;;;;;;19.41;67.56;99968.04;;;;-58
2021/10/02 13:00:24;;;;;;;4.85;2.37;;;;;;;19.42;67.32;99970.53;;;;-53
2021/10/02 13:03:24;;;;;;;6.68;2.42;;;;;;;19.43;67.43;99969.91;;;;-52
2021/10/02 13:06:24;;;;;;;8.09;2.51;;;;;;;19.43;67.44;99958.05;;;;-52
2021/10/02 13:09:24;;;;;;;6.55;2.33;;;;;;;19.43;67.45;99955.59;;;;-55
2021/10/02 13:12:24;;;;;;;9.28;2.58;;;;;;;19.44;67.48;99952.34;;;;-60
2021/10/02 13:15:25;;;;;;;4.79;2.38;;;;;;;19.42;67.49;99944.48;;;;-60
2021/10/02 13:18:25;;;;;;;4.11;2.51;;;;;;;19.42;67.49;99942.75;;;;-59
2021/10/02 13:21:24;;;;;;;5.14;2.37;;;;;;;19.40;67.57;99945.52;;;;-61
2021/10/02 13:24:24;;;;;;;4.97;2.38;;;;;;;19.38;67.59;99942.86;;;;-59
2021/10/02 13:27:24;;;;;;;6.03;2.43;;;;;;;19.40;67.59;99935.38;;;;-61
2021/10/02 13:30:24;;;;;;;5.50;2.41;;;;;;;19.41;67.65;99933.02;;;;-56
2021/10/02 13:33:24;;;;;;;6.27;2.49;;;;;;;19.42;67.73;99935.52;;;;-53
2021/10/02 13:36:27;;;;;;;5.57;2.47;;;;;;;19.44;67.76;99933.24;;;;-62
2021/10/02 13:39:24;;;;;;;10.33;2.59;;;;;;;19.46;67.71;99929.34;;;;-54
2021/10/02 13:42:25;;;;;;;5.99;2.45;;;;;;;19.46;67.78;99918.95;;;;-53
2021/10/02 13:45:24;;;;;;;5.36;2.31;;;;;;;19.47;67.93;99911.55;;;;-54
2021/10/02 13:48:24;;;;;;;4.05;2.18;;;;;;;19.48;67.85;99907.55;;;;-53
2021/10/02 13:51:24;;;;;;;4.55;2.49;;;;;;;19.49;67.96;99903.43;;;;-60
2021/10/02 13:54:24;;;;;;;6.06;2.53;;;;;;;19.48;68.09;99895.03;;;;-54
2021/10/02 13:57:24;;;;;;;5.78;2.37;;;;;;;19.50;68.09;99896.74;;;;-55
2021/10/02 14:00:24;;;;;;;5.13;2.30;;;;;;;19.51;67.98;99881.23;;;;-60
2021/10/02 14:03:24;;;;;;;3.76;2.06;;;;;;;19.52;68.23;99870.00;;;;-59
2021/10/02 14:06:24;;;;;;;4.53;2.06;;;;;;;19.52;67.98;99863.90;;;;-53
2021/10/02 14:09:24;;;;;;;4.81;2.25;;;;;;;19.53;68.07;99858.47;;;;-51
2021/10/02 14:12:24;;;;;;;3.68;2.18;;;;;;;19.54;68.06;99850.66;;;;-50
2021/10/02 14:15:24;;;;;;;4.40;2.35;;;;;;;19.54;68.09;99837.24;;;;-59
2021/10/02 14:18:25;;;;;;;4.32;2.17;;;;;;;19.55;68.02;99833.02;;;;-56
2021/10/02 14:21:24;;;;;;;4.21;2.41;;;;;;;19.56;68.10;99832.84;;;;-52
2021/10/02 14:24:24;;;;;;;3.57;2.27;;;;;;;19.56;68.12;99821.22;;;;-63
2021/10/02 14:27:24;;;;;;;6.04;2.33;;;;;;;19.57;68.09;99810.02;;;;-59
2021/10/02 14:30:24;;;;;;;4.87;2.55;;;;;;;19.58;68.20;99805.69;;;;-56
2021/10/02 14:33:24;;;;;;;3.31;2.14;;;;;;;19.59;68.13;99805.92;;;;-60
2021/10/02 14:36:24;;;;;;;3.87;2.20;;;;;;;19.60;68.15;99800.24;;;;-59
2021/10/02 14:39:24;;;;;;;3.89;2.47;;;;;;;19.61;68.11;99795.86;;;;-57
2021/10/02 14:42:24;;;;;;;5.05;2.20;;;;;;;19.60;68.19;99798.45;;;;-57
2021/10/02 14:45:25;;;;;;;6.48;2.31;;;;;;;19.59;68.05;99792.92;;;;-57
2021/10/02 14:48:24;;;;;;;4.23;2.09;;;;;;;19.58;68.02;99793.42;;;;-57
2021/10/02 14:51:24;;;;;;;4.88;1.99;;;;;;;19.58;67.99;99787.90;;;;-56
2021/10/02 14:54:24;;;;;;;5.07;2.33;;;;;;;19.58;68.00;99782.53;;;;-61
2021/10/02 14:57:24;;;;;;;4.01;2.16;;;;;;;19.59;67.93;99778.14;;;;-55
2021/10/02 15:00:24;;;;;;;7.38;2.21;;;;;;;19.60;67.95;99771.14;;;;-60
2021/10/02 15:03:24;;;;;;;4.15;2.37;;;;;;;19.58;67.92;99770.25;;;;-60
2021/10/02 15:06:24;;;;;;;7.57;2.39;;;;;;;19.58;67.93;99764.66;;;;-60
2021/10/02 15:09:24;;;;;;;5.86;2.19;;;;;;;19.56;67.99;99756.20;;;;-60
2021/10/02 15:12:24;;;;;;;6.99;2.19;;;;;;;19.57;67.93;99744.27;;;;-61
2021/10/02 15:15:24;;;;;;;3.65;2.25;;;;;;;19.58;67.90;99741.98;;;;-57
2021/10/02 15:18:24;;;;;;;4.84;2.16;;;;;;;19.59;67.89;99732.29;;;;-52
2021/10/02 15:21:24;;;;;;;3.87;2.27;;;;;;;19.60;67.89;99725.14;;;;-59
2021/10/02 15:24:24;;;;;;;4.08;2.21;;;;;;;19.62;67.88;99720.34;;;;-57
2021/10/02 15:27:24;;;;;;;4.66;2.03;;;;;;;19.62;67.93;99719.59;;;;-57
2021/10/02 15:30:24;;;;;;;3.85;2.33;;;;;;;19.63;67.89;99712.84;;;;-55
2021/10/02 15:33:24;;;;;;;4.04;2.20;;;;;;;19.63;67.86;99708.39;;;;-53
2021/10/02 15:36:24;;;;;;;4.40;2.23;;;;;;;19.63;67.95;99706.92;;;;-53
2021/10/02 15:39:24;;;;;;;2.59;2.11;;;;;;;19.65;67.90;99705.75;;;;-53
2021/10/02 15:42:24;;;;;;;3.60;2.44;;;;;;;19.65;67.92;99700.66;;;;-52
2021/10/02 15:45:24;;;;;;;4.35;2.16;;;;;;;19.65;67.96;99703.02;;;;-54
2021/10/02 15:48:24;;;;;;;4.70;2.15;;;;;;;19.67;67.89;99697.61;;;;-54
2021/10/02 15:51:24;;;;;;;3.93;2.29;;;;;;;19.65;67.98;99693.08;;;;-54
2021/10/02 15:54:25;;;;;;;4.35;2.31;;;;;;;19.64;67.91;99687.41;;;;-54
2021/10/02 15:57:24;;;;;;;3.34;2.38;;;;;;;19.63;67.89;99682.84;;;;-54
2021/10/02 16:00:24;;;;;;;3.57;2.15;;;;;;;19.61;67.92;99676.86;;;;-55
2021/10/02 16:03:26;;;;;;;3.99;2.21;;;;;;;19.61;67.97;99671.41;;;;-55
2021/10/02 16:06:24;;;;;;;3.28;2.09;;;;;;;19.59;68.01;99662.39;;;;-54
2021/10/02 16:09:24;;;;;;;4.02;2.15;;;;;;;19.61;67.94;99661.41;;;;-51
2021/10/02 16:12:24;;;;;;;3.47;2.06;;;;;;;19.61;67.89;99660.38;;;;-51
2021/10/02 16:15:24;;;;;;;5.07;2.19;;;;;;;19.62;67.89;99654.09;;;;-51
2021/10/02 16:18:24;;;;;;;4.55;2.15;;;;;;;19.64;67.84;99650.27;;;;-58
2021/10/02 16:21:24;;;;;;;9.81;2.44;;;;;;;19.66;67.77;99648.53;;;;-58
2021/10/02 16:24:24;;;;;;;5.19;2.46;;;;;;;19.66;67.68;99643.50;;;;-58
2021/10/02 16:27:24;;;;;;;12.73;2.38;;;;;;;19.65;67.66;99637.34;;;;-58
2021/10/02 16:30:25;;;;;;;4.68;2.47;;;;;;;19.65;67.64;99631.08;;;;-57
2021/10/02 16:33:24;;;;;;;3.21;2.23;;;;;;;19.63;67.71;99615.55;;;;-57
2021/10/02 16:36:24;;;;;;;7.34;2.23;;;;;;;19.63;67.70;99615.96;;;;-56
2021/10/02 16:39:24;;;;;;;3.90;2.58;;;;;;;19.61;67.66;99613.31;;;;-58
2021/10/02 16:42:24;;;;;;;7.02;2.50;;;;;;;19.61;67.67;99603.39;;;;-62
2021/10/02 16:45:25;;;;;;;3.49;2.41;;;;;;;19.59;67.74;99600.08;;;;-62
2021/10/02 16:48:24;;;;;;;5.27;2.39;;;;;;;19.58;67.78;99593.40;;;;-57
2021/10/02 16:51:24;;;;;;;2.86;2.11;;;;;;;19.58;67.78;99589.34;;;;-57
2021/10/02 16:54:24;;;;;;;3.69;2.30;;;;;;;19.58;67.77;99586.83;;;;-58
2021/10/02 16:57:24;;;;;;;6.44;2.32;;;;;;;19.57;67.84;99591.63;;;;-58
2021/10/02 17:00:24;;;;;;;2.55;2.22;;;;;;;19.57;67.84;99585.47;;;;-56
2021/10/02 17:03:24;;;;;;;3.42;2.15;;;;;;;19.56;67.81;99578.72;;;;-57
2021/10/02 17:06:24;;;;;;;3.67;2.15;;;;;;;19.56;67.80;99577.90;;;;-57
2021/10/02 17:09:25;;;;;;;2.78;2.27;;;;;;;19.55;67.85;99573.94;;;;-57
2021/10/02 17:12:24;;;;;;;3.25;2.24;;;;;;;19.55;67.81;99573.53;;;;-58
2021/10/02 17:15:26;;;;;;;3.25;2.17;;;;;;;19.54;67.87;99569.54;;;;-57
2021/10/02 17:18:24;;;;;;;2.71;2.11;;;;;;;19.54;67.86;99565.31;;;;-58
2021/10/02 17:21:24;;;;;;;3.07;2.20;;;;;;;19.54;67.83;99561.75;;;;-58
2021/10/02 17:24:24;;;;;;;3.82;2.01;;;;;;;19.53;67.88;99563.06;;;;-58
2021/10/02 17:27:24;;;;;;;4.93;2.17;;;;;;;19.53;67.97;99558.77;;;;-58
2021/10/02 17:30:24;;;;;;;3.18;2.16;;;;;;;19.54;67.83;99557.61;;;;-57
2021/10/02 17:33:24;;;;;;;2.94;2.18;;;;;;;19.53;67.92;99555.75;;;;-57